Flight Track Log - Related Links

Times and Time Zones

All times are in EDT time to prevent confusion due to time zone crossing. See the RPA3284 flight status page for this flight to view local times or setup timezone preferences in your user account.

Time Position Orientation Groundspeed Altitude Reporting Facility
EDT Latitude Longitude Course Direction KTS MPH feet Rate Location/Type
Fri 05:56:58 PM 35.1908 -80.9356 72° East 154 177 1,800  Level Atlanta Center
Fri 05:58:30 PM 35.1094 -80.9311 177° South 238 274 4,600 2,549 Climbing Atlanta Center
Fri 05:59:00 PM 35.1274 -80.6151 29° Northeast  Level FlightAware Approximate
Fri 05:59:31 PM 35.0297 -80.9214 174° South 283 326 8,300  Level Atlanta Center
Fri 06:00:00 PM 35.2288 -80.5461 30° Northeast  Level FlightAware Approximate
Fri 06:00:31 PM 35.0131 -80.8333 103° East 310 357 11,000  Level Atlanta Center
Fri 06:01:00 PM 35.3173 -80.4667 North  Level FlightAware Approximate
Fri 06:01:32 PM 35.0289 -80.7261 80° East 340 391 13,600  Level Atlanta Center
Fri 06:02:00 PM 35.3641 -80.3501 72° East  Level FlightAware Approximate
Fri 06:02:18 PM 35.0392 -80.6472 81° East 384 442 14,000  Level Atlanta Center
Fri 06:03:18 PM 35.0569 -80.5322 79° East 361 415 15,200 1,800 Climbing Atlanta Center
Fri 06:04:18 PM 35.0681 -80.4150 83° East 348 400 17,600 2,033 Climbing Atlanta Center
Fri 06:06:18 PM 35.1519 -80.1797 66° East 374 430 21,300 1,823 Climbing Washington Center
Fri 06:07:19 PM 35.2108 -80.0636 58° Northeast 396 456 23,100 1,686 Climbing Washington Center
Fri 06:08:19 PM 35.2733 -79.9475 57° Northeast 402 463 24,700 1,587 Climbing Washington Center
Fri 06:09:20 PM 35.3361 -79.8261 58° Northeast 402 463 26,300 1,488 Climbing Washington Center
Fri 06:10:20 PM 35.4011 -79.7047 57° Northeast 408 470 27,700 1,373 Climbing Washington Center
Fri 06:11:18 PM 35.4678 -79.5806 57° Northeast 423 487 29,000 1,322 Climbing Washington Center
Fri 06:12:18 PM 35.5303 -79.4561 58° Northeast 429 494 30,300 1,100 Climbing Washington Center
Fri 06:13:18 PM 35.5972 -79.3214 59° Northeast 437 503 31,200 1,050 Climbing Washington Center
Fri 06:14:18 PM 35.6658 -79.1917 57° Northeast 437 503 32,400 1,190 Climbing Washington Center
Fri 06:15:19 PM 35.7303 -79.0617 59° Northeast 437 503 33,600 1,190 Climbing Washington Center
Fri 06:16:19 PM 35.8011 -78.9186 59° Northeast 437 503 34,800 694 Climbing Washington Center
Fri 06:17:20 PM 35.8672 -78.7883 58° Northeast 437 503 35,000 99 Climbing Washington Center
Fri 06:18:20 PM 35.9311 -78.6600 58° Northeast 437 503 35,000  Level Washington Center
Fri 06:19:18 PM 35.9928 -78.5264 60° Northeast 437 503 35,000  Level Washington Center
Fri 06:20:19 PM 36.0564 -78.4003 58° Northeast 437 503 35,000  Level Washington Center
Fri 06:21:18 PM 36.1178 -78.2686 60° Northeast 437 503 35,000  Level Washington Center
Fri 06:22:19 PM 36.1833 -78.1344 59° Northeast 437 503 35,000  Level Washington Center
Fri 06:23:19 PM 36.2486 -78.0003 59° Northeast 437 503 35,000  Level Washington Center
Fri 06:24:19 PM 36.3097 -77.8731 59° Northeast 437 503 35,000  Level Washington Center
Fri 06:25:20 PM 36.3747 -77.7383 59° Northeast 442 509 35,000  Level Washington Center
Fri 06:26:20 PM 36.4289 -77.6183 61° Northeast 442 509 35,000  Level Washington Center
Fri 06:27:18 PM 36.4939 -77.4806 60° Northeast 442 509 35,000  Level Washington Center
Fri 06:28:19 PM 36.5564 -77.3478 60° Northeast 442 509 35,000  Level Washington Center
Fri 06:29:20 PM 36.6186 -77.2119 60° Northeast 442 509 35,000  Level Washington Center
Fri 06:30:20 PM 36.6831 -77.0758 59° Northeast 442 509 35,000  Level Washington Center
Fri 06:31:19 PM 36.7822 -76.9767 39° Northeast 436 502 35,000  Level Washington Center
Fri 06:32:20 PM 36.8917 -76.9008 29° Northeast 441 507 35,000  Level Washington Center
Fri 06:33:18 PM 37.0072 -76.8169 30° Northeast 459 528 35,000  Level Washington Center
Fri 06:34:19 PM 37.1228 -76.7328 30° Northeast 476 548 35,000  Level Washington Center
Fri 06:35:20 PM 37.2508 -76.6381 30° Northeast 485 558 35,000  Level Washington Center
Fri 06:36:18 PM 37.3683 -76.5536 30° Northeast 485 558 35,000  Level Washington Center
Fri 06:37:18 PM 37.4839 -76.4711 30° Northeast 485 558 35,000  Level Washington Center
Fri 06:38:19 PM 37.6011 -76.3861 30° Northeast 485 558 35,000  Level Washington Center
Fri 06:39:20 PM 37.7164 -76.3006 30° Northeast 485 558 35,000  Level Washington Center
Fri 06:40:18 PM 37.8358 -76.2150 29° Northeast 485 558 35,000  Level Washington Center
Fri 06:41:19 PM 37.9508 -76.1289 31° Northeast 485 558 35,000  Level Washington Center
Fri 06:42:20 PM 38.0681 -76.0428 30° Northeast 485 558 35,000  Level Washington Center
Fri 06:43:18 PM 38.1831 -75.9564 31° Northeast 485 558 35,000  Level Washington Center
Fri 06:44:18 PM 38.2875 -75.8747 32° Northeast 485 558 35,000  Level Washington Center
Fri 06:45:20 PM 38.4064 -75.7903 29° Northeast 490 564 35,000  Level Washington Center
Fri 06:46:18 PM 38.5214 -75.7058 30° Northeast 490 564 35,000  Level Washington Center
Fri 06:47:19 PM 38.6361 -75.6183 31° Northeast 490 564 35,000  Level Washington Center
Fri 06:48:19 PM 38.7547 -75.5306 30° Northeast 485 558 35,000  Level Washington Center
Fri 06:49:20 PM 38.8672 -75.4317 34° Northeast 490 564 35,000  Level Washington Center
Fri 06:50:18 PM 38.9797 -75.3325 34° Northeast 490 564 35,000  Level Washington Center
Fri 06:51:19 PM 39.0900 -75.2386 33° Northeast 485 558 35,000  Level Washington Center
Fri 06:52:19 PM 39.2125 -75.1228 36° Northeast 490 564 35,000  Level Washington Center
Fri 06:53:18 PM 39.3225 -75.0175 37° Northeast 490 564 35,000  Level Washington Center
Fri 06:54:18 PM 39.4325 -74.9172 35° Northeast 490 564 35,000  Level Washington Center
Fri 06:56:16 PM 39.6494 -74.7181 35° Northeast 522 601 35,000  Level New York Center
Fri 06:57:16 PM 39.7611 -74.6164 35° Northeast 493 567 35,000 -350 Level New York Center
Fri 06:58:16 PM 39.8642 -74.5219 35° Northeast 506 582 34,300 -992 Descending New York Center
Fri 06:59:17 PM 39.9889 -74.4042 36° Northeast 513 590 33,000 -655 Descending New York Center
Fri 07:00:15 PM 40.1006 -74.2958 37° Northeast 502 578 33,000  Level New York Center
Fri 07:01:16 PM 40.2142 -74.1903 35° Northeast 502 578 33,000  Level New York Center
Fri 07:02:16 PM 40.3317 -74.0900 33° Northeast 502 578 33,000 -50 Level New York Center
Fri 07:03:16 PM 40.4469 -73.9892 34° Northeast 502 578 32,900 -496 Descending New York Center
Fri 07:04:17 PM 40.5622 -73.8881 34° Northeast 502 578 32,000 -1,008 Descending New York Center
Fri 07:05:15 PM 40.6708 -73.7944 33° Northeast 502 578 30,900 -2,062 Descending New York Center
Fri 07:07:32 PM 40.9358 -73.5692 33° Northeast 500 575 25,300 -2,162 Descending Boston Center
Fri 07:08:32 PM 41.0819 -73.5664 North 456 525 23,800 -1,250 Descending Boston Center
Fri 07:09:32 PM 41.2047 -73.5603 North 456 525 22,800 -1,000 Descending Boston Center
Fri 07:10:32 PM 41.3300 -73.5542 North 456 525 21,800 -1,000 Descending Boston Center
Fri 07:11:32 PM 41.4508 -73.5478 North 444 511 20,800 -1,050 Descending Boston Center
Fri 07:12:32 PM 41.5550 -73.5497 359° North 433 498 19,700 -1,600 Descending Boston Center
Fri 07:13:32 PM 41.6678 -73.5433 North 408 470 17,600 -2,200 Descending Boston Center
Fri 07:14:32 PM 41.7908 -73.5372 North 402 463 15,300 -2,100 Descending Boston Center
Fri 07:15:32 PM 41.8867 -73.5333 North 392 451 13,400 -2,054 Descending Boston Center
Fri 07:16:23 PM 41.9867 -73.5294 North 370 426 11,500 -1,371 Descending Boston Center
Fri 07:17:17 PM 42.0742 -73.5281 North 360 414 11,000 -261 Descending Boston Center
Fri 07:18:18 PM 42.1806 -73.5300 359° North 358 412 11,000 -234 Level Boston Center
Fri 07:19:25 PM 42.2739 -73.5764 340° North 325 374 10,500 -902 Descending Boston Center
Fri 07:20:31 PM 42.3608 -73.6175 341° North 268 308 9,000 -1,512 Descending Boston Center
Fri 07:21:32 PM 42.4336 -73.6383 348° North 269 310 7,300 -1,537 Descending Boston Center
Fri 07:22:32 PM 42.5086 -73.6539 351° North 267 307 5,900 -1,300 Descending Boston Center
Fri 07:23:32 PM 42.5750 -73.6694 350° North 267 307 4,700 -950 Descending Boston Center
Fri 07:24:32 PM 42.6542 -73.6908 349° North 267 307 4,000 -780 Descending Boston Center
Fri 07:25:35 PM 42.7308 -73.7119 349° North 255 293 3,100 -857 Descending Boston Center

Login

Don't have an account? Register now (free) for customized features, flight alerts, and more!